createdAt,value
2022-10-28T00:00:33.458Z,20.98
2022-10-28T00:03:02.066Z,21.07
2022-10-28T00:05:29.573Z,21.04
2022-10-28T00:07:56.830Z,21.04
2022-10-28T00:10:24.065Z,21.06
2022-10-28T00:12:51.285Z,21.07
2022-10-28T00:15:20.414Z,20.87
2022-10-28T00:17:47.597Z,20.92
2022-10-28T00:20:15.882Z,21.01
2022-10-28T00:22:43.721Z,20.99
2022-10-28T00:25:11.185Z,20.92
2022-10-28T00:27:38.633Z,20.86
2022-10-28T00:30:06.338Z,20.93
2022-10-28T00:32:33.757Z,20.90
2022-10-28T00:35:00.941Z,20.89
2022-10-28T00:37:28.183Z,20.82
2022-10-28T00:39:55.474Z,20.76
2022-10-28T00:42:22.754Z,20.76
2022-10-28T00:44:54.628Z,20.77
2022-10-28T00:47:52.302Z,20.76
2022-10-28T00:50:33.776Z,20.88
2022-10-28T00:53:04.169Z,20.78
2022-10-28T00:55:31.842Z,20.74
2022-10-28T00:57:59.549Z,20.70
2022-10-28T01:00:26.822Z,20.80
2022-10-28T01:02:55.261Z,20.91
2022-10-28T01:05:25.916Z,20.87
2022-10-28T01:07:57.559Z,20.84
2022-10-28T01:10:49.488Z,20.82
2022-10-28T01:13:54.056Z,20.65
2022-10-28T01:16:51.628Z,20.67
2022-10-28T01:19:56.440Z,20.69
2022-10-28T01:22:34.672Z,20.70
2022-10-28T01:25:13.285Z,20.67
2022-10-28T01:28:09.818Z,20.49
2022-10-28T01:31:16.090Z,20.58
2022-10-28T01:34:12.594Z,20.56
2022-10-28T01:36:49.338Z,20.52
2022-10-28T01:39:52.049Z,20.52
2022-10-28T01:42:37.371Z,20.41
2022-10-28T01:45:22.930Z,20.29
2022-10-28T01:48:01.611Z,20.41
2022-10-28T01:50:38.334Z,20.18
2022-10-28T01:53:12.170Z,20.33
2022-10-28T01:55:42.404Z,20.46
2022-10-28T01:58:09.658Z,20.46
2022-10-28T02:00:37.390Z,20.41
2022-10-28T02:03:07.115Z,20.55
2022-10-28T02:05:42.193Z,20.52
2022-10-28T02:08:17.996Z,20.56
2022-10-28T02:11:00.832Z,20.37
2022-10-28T02:13:57.158Z,20.44
2022-10-28T02:16:33.670Z,20.50
2022-10-28T02:19:25.288Z,20.48
2022-10-28T02:22:28.385Z,20.46
2022-10-28T02:25:05.236Z,20.41
2022-10-28T02:27:41.670Z,20.42
2022-10-28T02:30:17.346Z,20.48
2022-10-28T02:33:07.012Z,20.43
2022-10-28T02:35:53.426Z,20.54
2022-10-28T02:38:29.119Z,20.49
2022-10-28T02:41:00.039Z,20.45
2022-10-28T02:43:30.316Z,20.53
2022-10-28T02:45:59.592Z,20.45
2022-10-28T02:48:45.284Z,20.46
2022-10-28T02:51:20.352Z,20.38
2022-10-28T02:54:01.659Z,20.44
2022-10-28T02:56:32.101Z,20.51
2022-10-28T02:58:59.401Z,20.55
2022-10-28T06:50:40.516Z,20.27
2022-10-28T06:53:09.224Z,20.05
2022-10-28T06:55:36.688Z,19.98
2022-10-28T06:58:04.085Z,19.83
2022-10-28T07:03:04.314Z,19.70
2022-10-28T07:05:31.642Z,19.71
2022-10-28T07:07:58.882Z,19.66
2022-10-28T07:10:26.052Z,19.61
2022-10-28T07:12:53.969Z,19.51
2022-10-28T07:15:21.708Z,19.30
2022-10-28T07:17:55.583Z,19.23
2022-10-28T07:20:24.147Z,19.33
2022-10-28T07:23:02.071Z,19.35
2022-10-28T07:25:30.741Z,19.35
2022-10-28T07:27:58.737Z,19.46
2022-10-28T07:30:27.125Z,19.62
2022-10-28T07:32:54.794Z,19.71
2022-10-28T07:35:22.441Z,19.77
2022-10-28T07:37:49.972Z,19.79
2022-10-28T07:40:17.956Z,20.03
2022-10-28T07:42:45.161Z,20.20
2022-10-28T07:45:12.731Z,20.24
2022-10-28T07:47:40.095Z,20.32
2022-10-28T07:50:08.565Z,20.43
2022-10-28T07:52:36.446Z,20.43
2022-10-28T07:55:07.832Z,20.46
2022-10-28T07:57:35.564Z,20.47
2022-10-28T08:00:05.259Z,20.49
2022-10-28T08:02:37.994Z,20.38
2022-10-28T08:05:05.893Z,20.61
2022-10-28T08:07:36.206Z,20.73
2022-10-28T08:10:06.683Z,20.73
2022-10-28T08:12:33.942Z,20.84
2022-10-28T08:15:02.618Z,20.90
2022-10-28T08:17:30.129Z,20.95
2022-10-28T08:19:57.404Z,21.04
2022-10-28T08:22:24.827Z,21.03
2022-10-28T08:24:52.076Z,21.21
2022-10-28T08:27:19.337Z,21.19
2022-10-28T08:29:46.688Z,21.03
2022-10-28T08:32:14.031Z,21.13
2022-10-28T08:34:43.620Z,21.12
2022-10-28T08:37:11.362Z,21.38
2022-10-28T08:39:38.693Z,21.43
2022-10-28T08:42:28.114Z,21.34
2022-10-28T08:45:04.623Z,21.38
2022-10-28T08:47:41.322Z,21.49
2022-10-28T08:50:18.276Z,21.35
2022-10-28T08:52:54.418Z,21.22
2022-10-28T08:55:28.339Z,21.42
2022-10-28T08:57:58.993Z,21.42
2022-10-28T09:00:28.769Z,21.48
2022-10-28T09:03:12.621Z,21.54
2022-10-28T09:05:41.638Z,21.59
2022-10-28T09:08:29.577Z,21.56
2022-10-28T09:11:34.286Z,21.68
2022-10-28T09:14:23.469Z,21.61
2022-10-28T09:17:25.016Z,21.48
2022-10-28T09:19:54.724Z,21.58
2022-10-28T09:22:48.527Z,21.63
2022-10-28T09:25:48.965Z,21.60
2022-10-28T09:28:35.189Z,21.72
2022-10-28T09:31:11.411Z,21.73
2022-10-28T09:34:03.164Z,21.76
2022-10-28T09:36:40.656Z,21.68
2022-10-28T09:41:44.188Z,21.31
2022-10-28T09:44:26.644Z,20.96
2022-10-28T09:46:57.198Z,21.22
2022-10-28T09:49:28.169Z,21.48
2022-10-28T09:51:55.303Z,21.27
2022-10-28T09:54:30.420Z,21.62
2022-10-28T09:56:57.703Z,21.79
2022-10-28T09:59:24.945Z,21.83
2022-10-28T10:01:52.268Z,21.94
2022-10-28T10:04:22.357Z,22.10
2022-10-28T10:06:51.302Z,22.20
2022-10-28T10:09:23.668Z,22.06
2022-10-28T10:11:52.640Z,22.01
2022-10-28T10:14:44.390Z,22.23
2022-10-28T10:17:32.868Z,22.08
2022-10-28T10:20:04.688Z,22.08
2022-10-28T10:22:37.399Z,22.14
2022-10-28T10:25:20.290Z,22.09
2022-10-28T10:28:17.200Z,22.04
2022-10-28T10:30:59.247Z,22.18
2022-10-28T10:33:32.646Z,22.10
2022-10-28T10:36:05.793Z,22.22
2022-10-28T10:38:33.175Z,22.20
2022-10-28T10:41:00.771Z,22.34
2022-10-28T10:43:33.676Z,22.46
2022-10-28T10:46:17.928Z,22.36
2022-10-28T10:48:45.503Z,22.43
2022-10-28T10:51:23.738Z,22.38
2022-10-28T10:53:54.629Z,22.35
2022-10-28T10:56:27.392Z,22.24
2022-10-28T10:58:56.286Z,22.19
2022-10-28T11:01:27.242Z,22.13
2022-10-28T11:04:00.893Z,22.30
2022-10-28T11:06:34.605Z,22.36
2022-10-28T11:09:05.322Z,22.59
2022-10-28T11:11:35.200Z,22.67
2022-10-28T11:14:10.347Z,22.54
2022-10-28T11:16:50.691Z,22.53
2022-10-28T11:19:24.698Z,22.50
2022-10-28T11:22:10.836Z,22.62
2022-10-28T11:25:09.123Z,22.59
2022-10-28T11:28:03.959Z,22.58
2022-10-28T11:30:45.104Z,22.74
2022-10-28T11:33:34.451Z,22.65
2022-10-28T11:36:13.501Z,22.71
2022-10-28T11:38:58.290Z,22.73
2022-10-28T11:41:28.615Z,22.40
2022-10-28T11:44:00.853Z,22.43
2022-10-28T11:47:00.887Z,22.52
2022-10-28T11:49:38.009Z,22.41
2022-10-28T11:52:45.337Z,22.59
2022-10-28T11:55:25.685Z,22.68
2022-10-28T11:58:26.687Z,22.89
2022-10-28T12:01:00.951Z,22.81
2022-10-28T12:03:41.004Z,22.78
2022-10-28T12:06:20.531Z,23.01
2022-10-28T12:09:04.542Z,23.10
2022-10-28T12:11:56.973Z,23.09
2022-10-28T12:14:59.475Z,23.50
2022-10-28T12:17:40.658Z,23.29
2022-10-28T12:20:23.299Z,23.30
2022-10-28T12:23:03.141Z,23.36
2022-10-28T12:25:34.787Z,23.35
2022-10-28T12:28:06.673Z,23.44
2022-10-28T12:30:36.965Z,23.65
2022-10-28T12:33:11.185Z,23.62
2022-10-28T12:35:41.555Z,23.43
2022-10-28T12:38:17.127Z,23.59
2022-10-28T12:41:07.430Z,23.34
2022-10-28T12:43:40.777Z,23.19
2022-10-28T12:46:19.311Z,23.49
2022-10-28T12:48:56.529Z,23.70
2022-10-28T12:51:28.281Z,23.72
2022-10-28T12:54:00.735Z,23.92
2022-10-28T12:56:38.123Z,23.87
2022-10-28T12:59:05.585Z,23.90
2022-10-28T13:01:33.708Z,23.90
2022-10-28T13:04:01.265Z,23.92
2022-10-28T13:06:31.309Z,23.93
2022-10-28T13:09:17.329Z,23.85
2022-10-28T13:12:06.235Z,23.90
2022-10-28T13:15:04.637Z,24.07
2022-10-28T13:17:41.312Z,24.08
2022-10-28T13:20:20.331Z,24.07
2022-10-28T13:23:12.311Z,24.10
2022-10-28T13:26:07.499Z,23.64
2022-10-28T13:28:41.570Z,23.55
2022-10-28T13:31:09.310Z,23.75
2022-10-28T13:33:37.992Z,23.80
2022-10-28T13:36:11.532Z,23.92
2022-10-28T13:38:38.777Z,23.71
2022-10-28T13:41:05.890Z,23.94
2022-10-28T13:43:51.804Z,23.95
2022-10-28T13:46:56.741Z,23.96
2022-10-28T13:49:31.715Z,23.82
2022-10-28T13:52:18.720Z,23.99
2022-10-28T13:54:45.896Z,24.02
2022-10-28T13:57:36.934Z,23.98
2022-10-28T14:00:07.891Z,23.98
2022-10-28T14:02:40.278Z,23.94
2022-10-28T14:05:10.103Z,23.95
2022-10-28T14:07:50.400Z,23.88
2022-10-28T14:10:32.938Z,24.01
2022-10-28T14:13:03.892Z,23.96
2022-10-28T14:15:33.429Z,24.18
2022-10-28T14:18:10.581Z,23.82
2022-10-28T14:20:50.114Z,23.94
2022-10-28T14:23:20.446Z,24.05
2022-10-28T14:25:50.823Z,24.02
2022-10-28T14:28:27.219Z,24.00
2022-10-28T14:31:12.549Z,23.97
2022-10-28T14:33:42.504Z,24.00
2022-10-28T14:36:18.876Z,24.13
2022-10-28T14:39:04.549Z,24.13
2022-10-28T14:42:09.574Z,24.04
2022-10-28T14:45:03.064Z,24.01
2022-10-28T14:47:45.236Z,23.86
2022-10-28T14:50:24.921Z,23.86
2022-10-28T14:52:52.532Z,23.71
2022-10-28T14:55:22.920Z,23.71
2022-10-28T14:57:50.363Z,23.92
2022-10-28T15:00:20.646Z,24.01
2022-10-28T15:02:48.352Z,23.75
2022-10-28T15:05:18.662Z,23.58
2022-10-28T15:07:46.604Z,23.67
2022-10-28T15:10:25.476Z,23.58
2022-10-28T15:12:54.738Z,23.46
2022-10-28T15:15:27.628Z,23.39
2022-10-28T15:17:55.031Z,23.55
2022-10-28T15:20:29.464Z,23.56
2022-10-28T15:23:12.841Z,23.56
2022-10-28T15:25:40.050Z,23.55
2022-10-28T15:28:11.027Z,23.49
2022-10-28T15:30:44.990Z,23.50
2022-10-28T15:33:29.740Z,23.61
2022-10-28T15:36:17.817Z,23.66
2022-10-28T15:38:47.050Z,23.40
2022-10-28T15:41:23.871Z,23.48
2022-10-28T15:43:59.621Z,23.49
2022-10-28T15:46:27.289Z,23.50
2022-10-28T15:48:55.781Z,23.46
2022-10-28T15:51:23.699Z,23.54
2022-10-28T15:53:55.248Z,23.36
2022-10-28T15:56:29.862Z,23.12
2022-10-28T15:59:07.437Z,23.12
2022-10-28T16:01:39.685Z,23.07
2022-10-28T16:04:43.725Z,22.94
2022-10-28T16:07:11.176Z,23.15
2022-10-28T16:09:45.437Z,23.22
2022-10-28T16:12:18.443Z,23.26
2022-10-28T16:14:47.409Z,22.92
2022-10-28T16:17:26.975Z,22.96
2022-10-28T16:19:55.807Z,22.94
2022-10-28T16:22:24.919Z,23.01
2022-10-28T16:24:52.943Z,23.01
2022-10-28T16:27:22.805Z,23.01
2022-10-28T16:29:50.380Z,23.01
2022-10-28T16:32:28.730Z,23.02
2022-10-28T16:34:57.831Z,22.89
2022-10-28T16:37:27.348Z,22.93
2022-10-28T16:39:55.911Z,22.96
2022-10-28T16:42:24.005Z,22.89
2022-10-28T16:44:51.692Z,22.77
2022-10-28T16:47:21.228Z,22.88
2022-10-28T16:49:54.460Z,22.94
2022-10-28T16:52:29.785Z,22.90
2022-10-28T16:54:57.855Z,22.82
2022-10-28T16:57:25.453Z,22.73
2022-10-28T16:59:53.350Z,22.72
2022-10-28T17:02:27.468Z,22.74
2022-10-28T17:04:54.883Z,22.72
2022-10-28T17:07:22.316Z,22.67
2022-10-28T17:09:49.571Z,22.69
2022-10-28T17:12:19.140Z,22.73
2022-10-28T17:14:46.601Z,22.61
2022-10-28T17:17:14.062Z,22.57
2022-10-28T17:19:41.616Z,22.48
2022-10-28T17:22:10.502Z,22.51
2022-10-28T17:24:38.209Z,22.50
2022-10-28T17:27:06.627Z,22.48
2022-10-28T17:29:34.012Z,22.43
2022-10-28T17:32:02.352Z,22.41
2022-10-28T17:34:29.582Z,22.43
2022-10-28T17:36:56.829Z,22.40
2022-10-28T17:39:26.401Z,22.40
2022-10-28T17:41:54.225Z,22.40
2022-10-28T17:44:21.467Z,22.27
2022-10-28T17:46:49.241Z,22.38
2022-10-28T17:49:16.529Z,22.37
2022-10-28T17:51:46.567Z,22.47
2022-10-28T17:54:13.896Z,22.43
2022-10-28T17:56:42.275Z,22.27
2022-10-28T17:59:09.683Z,22.24
2022-10-28T18:01:37.183Z,22.34
2022-10-28T18:04:06.111Z,22.20
2022-10-28T18:06:33.459Z,22.25
2022-10-28T18:09:00.810Z,22.20
2022-10-28T18:11:31.612Z,22.23
2022-10-28T18:13:58.896Z,22.15
2022-10-28T18:16:28.368Z,22.13
2022-10-28T18:18:56.343Z,22.04
2022-10-28T18:21:24.513Z,22.14
2022-10-28T18:23:52.898Z,22.00
2022-10-28T18:26:20.905Z,21.98
2022-10-28T18:28:49.098Z,22.20
2022-10-28T18:31:18.643Z,22.15
2022-10-28T18:33:46.641Z,22.08
2022-10-28T18:36:19.415Z,22.03
2022-10-28T18:38:46.736Z,22.08
2022-10-28T18:41:16.526Z,22.01
2022-10-28T18:43:44.031Z,22.06
2022-10-28T18:46:11.291Z,22.07
2022-10-28T18:48:39.149Z,21.76
2022-10-28T18:51:09.487Z,21.82
2022-10-28T18:53:38.243Z,21.88
2022-10-28T18:56:07.630Z,21.92
2022-10-28T18:58:35.134Z,21.90
2022-10-28T19:01:11.058Z,21.84
2022-10-28T19:03:38.725Z,21.90
2022-10-28T19:06:08.390Z,21.92
2022-10-28T19:08:35.731Z,21.86
2022-10-28T19:11:03.555Z,21.93
2022-10-28T19:13:38.880Z,21.89
2022-10-28T19:16:06.876Z,21.86
2022-10-28T19:18:36.678Z,21.96
2022-10-28T19:21:10.626Z,21.94
2022-10-28T19:23:38.245Z,21.92
2022-10-28T19:26:06.777Z,21.89
2022-10-28T19:28:39.531Z,21.86
2022-10-28T19:31:09.539Z,21.87
2022-10-28T19:33:40.139Z,21.89
2022-10-28T19:36:15.114Z,21.92
2022-10-28T19:38:42.401Z,21.80
2022-10-28T19:41:12.786Z,21.74
2022-10-28T19:43:40.458Z,21.66
2022-10-28T19:46:16.345Z,21.71
2022-10-28T19:48:45.762Z,21.61
2022-10-28T19:51:15.846Z,21.61
2022-10-28T19:53:53.930Z,21.64
2022-10-28T19:56:21.808Z,21.65
2022-10-28T19:58:53.502Z,21.67
2022-10-28T20:01:22.379Z,21.53
2022-10-28T20:03:51.202Z,21.65
2022-10-28T20:06:21.608Z,21.66
2022-10-28T20:08:49.490Z,21.60
2022-10-28T20:11:25.861Z,21.47
2022-10-28T20:14:00.868Z,21.40
2022-10-28T20:16:28.721Z,21.53
2022-10-28T20:18:56.841Z,21.47
2022-10-28T20:21:25.883Z,21.57
2022-10-28T20:23:54.665Z,21.61
2022-10-28T20:26:24.645Z,21.61
2022-10-28T20:28:51.932Z,21.61
2022-10-28T20:31:20.925Z,21.60
2022-10-28T20:33:59.286Z,21.60
2022-10-28T20:36:27.741Z,21.61
2022-10-28T20:39:01.992Z,21.64
2022-10-28T20:41:32.816Z,21.72
2022-10-28T20:44:01.415Z,21.68
2022-10-28T20:46:28.898Z,21.78
2022-10-28T20:48:56.786Z,21.75
2022-10-28T20:51:26.270Z,21.71
2022-10-28T20:53:53.583Z,21.70
2022-10-28T20:56:25.747Z,21.68
2022-10-28T20:58:54.084Z,21.63
2022-10-28T21:01:23.353Z,21.62
2022-10-28T21:03:54.713Z,21.66
2022-10-28T21:06:22.037Z,21.60
2022-10-28T21:08:49.412Z,21.57
2022-10-28T21:11:17.828Z,21.40
2022-10-28T21:13:51.896Z,21.59
2022-10-28T21:16:19.562Z,21.48
2022-10-28T21:18:47.637Z,21.52
2022-10-28T21:21:15.547Z,21.45
2022-10-28T21:23:42.770Z,21.40
2022-10-28T21:26:11.164Z,21.39
2022-10-28T21:28:41.286Z,21.44
2022-10-28T21:31:12.329Z,21.27
2022-10-28T21:33:40.475Z,21.33
2022-10-28T21:36:11.607Z,21.37
2022-10-28T21:38:39.620Z,21.28
2022-10-28T21:41:18.530Z,21.25
2022-10-28T21:43:48.462Z,21.29
2022-10-28T21:46:19.896Z,21.37
2022-10-28T21:48:47.471Z,21.40
2022-10-28T21:51:15.924Z,21.42
2022-10-28T21:53:44.466Z,21.42
2022-10-28T21:56:17.430Z,21.47
2022-10-28T21:58:49.255Z,21.46
2022-10-28T22:01:22.103Z,21.42
2022-10-28T22:03:50.847Z,21.31
2022-10-28T22:06:18.129Z,21.36
2022-10-28T22:08:46.810Z,21.11
2022-10-28T22:11:16.565Z,20.82
2022-10-28T22:13:44.292Z,20.85
2022-10-28T22:16:13.894Z,21.06
2022-10-28T22:18:41.832Z,21.29
2022-10-28T22:21:12.065Z,21.34
2022-10-28T22:23:40.614Z,21.35
2022-10-28T22:26:10.662Z,21.35
2022-10-28T22:28:38.293Z,21.27
2022-10-28T22:31:08.098Z,21.14
2022-10-28T22:33:35.990Z,21.04
2022-10-28T22:36:05.704Z,21.14
2022-10-28T22:38:33.442Z,20.97
2022-10-28T22:41:05.450Z,20.71
2022-10-28T22:43:32.841Z,20.70
2022-10-28T22:46:00.395Z,20.68
2022-10-28T22:48:28.361Z,20.67
2022-10-28T22:50:55.558Z,20.54
2022-10-28T22:53:22.958Z,20.74
2022-10-28T22:55:51.941Z,20.94
2022-10-28T22:58:19.955Z,20.74
2022-10-28T23:00:47.566Z,20.73
2022-10-28T23:03:15.039Z,20.95
2022-10-28T23:05:42.376Z,20.92
2022-10-28T23:08:14.486Z,20.98
2022-10-28T23:10:41.923Z,20.43
2022-10-28T23:13:11.617Z,20.38
2022-10-28T23:15:38.918Z,20.42
2022-10-28T23:18:06.160Z,20.39
2022-10-28T23:20:35.298Z,20.42
2022-10-28T23:23:02.964Z,20.55
2022-10-28T23:25:30.228Z,20.53
2022-10-28T23:27:57.649Z,20.42
2022-10-28T23:30:25.413Z,20.56
2022-10-28T23:32:52.681Z,20.61
2022-10-28T23:35:19.835Z,20.71
2022-10-28T23:37:47.129Z,20.78
2022-10-28T23:40:14.346Z,20.65
2022-10-28T23:42:41.577Z,20.69
2022-10-28T23:45:09.722Z,20.80
2022-10-28T23:47:37.039Z,20.69
2022-10-28T23:50:04.642Z,20.45
2022-10-28T23:52:31.943Z,20.18
2022-10-28T23:54:59.101Z,20.45
2022-10-28T23:57:26.409Z,20.69
2022-10-28T23:59:54.257Z,20.67
